Flight Track Log - Related Links

Times and Time Zones

All times are in EDT time to prevent confusion due to time zone crossing. See the DAL2270 flight status page for this flight to view local times or setup timezone preferences in your user account.

Time Position Orientation Groundspeed Altitude Reporting Facility
EDT Latitude Longitude Course Direction KTS MPH feet Rate Location/Type
Thu 04:48:50 PM 39.0500 -84.7000 295° West 178 205 1,600  Level Cincinnati TRACON
Thu 04:50:15 PM 39.0500 -84.8000 270° West 256 295 3,500 2,143 Climbing Cincinnati TRACON
Thu 04:51:00 PM 38.9630 -84.8673 314° West  Level FlightAware Approximate
Thu 04:52:00 PM 39.0438 -84.9823 311° West  Level FlightAware Approximate
Thu 04:52:06 PM 39.0531 -84.9725 271° West 269 310 8,600  Level Indianapolis Center
Thu 04:53:00 PM 39.0968 -85.1192 296° West  Level FlightAware Approximate
Thu 04:53:08 PM 39.0850 -85.0650 294° West 281 323 11,200  Level Indianapolis Center
Thu 04:54:00 PM 39.1489 -85.2593 295° West  Level FlightAware Approximate
Thu 04:54:10 PM 39.1364 -85.1467 309° West 294 338 13,400  Level Indianapolis Center
Thu 04:55:12 PM 39.1906 -85.2336 309° West 308 354 15,800 1,742 Climbing Indianapolis Center
Thu 04:56:14 PM 39.2544 -85.3156 315° West 320 368 17,000 871 Climbing Indianapolis Center
Thu 04:57:16 PM 39.3264 -85.4097 315° West 364 419 17,600 1,536 Climbing Indianapolis Center
Thu 04:58:19 PM 39.4194 -85.5317 315° West 396 456 20,200 2,352 Climbing Indianapolis Center
Thu 04:59:21 PM 39.4922 -85.6286 314° West 380 437 22,500 1,742 Climbing Indianapolis Center
Thu 05:00:23 PM 39.5644 -85.7253 314° West 375 432 23,800 1,258 Climbing Indianapolis Center
Thu 05:01:25 PM 39.6400 -85.8244 315° West 385 443 25,100 1,161 Climbing Indianapolis Center
Thu 05:02:27 PM 39.7150 -85.9244 314° West 391 450 26,200 1,065 Climbing Indianapolis Center
Thu 05:03:29 PM 39.8081 -86.0489 314° West 404 465 27,300 1,065 Climbing Indianapolis Center
Thu 05:04:31 PM 39.9011 -86.1350 325° Northwest 422 486 28,400 990 Climbing Indianapolis Center
Thu 05:05:06 PM 39.9597 -86.1822 328° Northwest 422 486 28,900 857 Climbing Chicago Center
Thu 05:06:09 PM 40.0581 -86.2664 327° Northwest 429 494 29,800 768 Climbing Chicago Center
Thu 05:07:11 PM 40.1581 -86.3536 326° Northwest 434 499 30,500 1,065 Climbing Chicago Center
Thu 05:08:13 PM 40.2658 -86.4708 320° Northwest 427 491 32,000 1,016 Climbing Chicago Center
Thu 05:09:15 PM 40.2889 -86.6106 282° West 405 466 32,600 484 Climbing Chicago Center
Thu 05:10:17 PM 40.2947 -86.7567 273° West 403 464 33,000 339 Climbing Chicago Center
Thu 05:11:19 PM 40.3008 -86.9047 273° West 409 471 33,300 387 Climbing Chicago Center
Thu 05:12:21 PM 40.3072 -87.0539 273° West 413 475 33,800 339 Climbing Chicago Center
Thu 05:13:23 PM 40.3147 -87.2322 273° West 412 474 34,000 97 Climbing Chicago Center
Thu 05:14:25 PM 40.3200 -87.3792 273° West 409 471 34,000  Level Chicago Center
Thu 05:15:27 PM 40.3261 -87.5419 273° West 408 470 34,000  Level Chicago Center
Thu 05:16:29 PM 40.3314 -87.6883 273° West 407 468 34,000  Level Chicago Center
Thu 05:16:56 PM 40.3333 -87.7322 273° West 408 470 34,000  Level Indianapolis Center
Thu 05:17:58 PM 40.3394 -87.9111 273° West 411 473 34,000  Level Indianapolis Center
Thu 05:18:33 PM 40.3422 -87.9861 273° West 411 473 34,000  Level Chicago Center
Thu 05:19:35 PM 40.3472 -88.1350 273° West 411 473 34,000  Level Chicago Center
Thu 05:20:37 PM 40.3511 -88.2878 272° West 418 481 34,000  Level Chicago Center
Thu 05:21:39 PM 40.3575 -88.4719 273° West 423 487 34,000  Level Chicago Center
Thu 05:22:41 PM 40.3614 -88.6153 272° West 425 489 34,000  Level Chicago Center
Thu 05:23:43 PM 40.3656 -88.7722 272° West 429 494 34,000  Level Chicago Center
Thu 05:24:45 PM 40.3692 -88.9303 272° West 432 497 34,000  Level Chicago Center
Thu 05:25:47 PM 40.3728 -89.0878 272° West 433 498 34,000  Level Chicago Center
Thu 05:26:49 PM 40.3775 -89.2747 272° West 429 494 34,000  Level Chicago Center
Thu 05:27:51 PM 40.3800 -89.4336 271° West 431 496 34,000  Level Chicago Center
Thu 05:28:53 PM 40.3822 -89.5931 271° West 435 501 34,000  Level Chicago Center
Thu 05:29:55 PM 40.3853 -89.7567 271° West 441 507 34,000 48 Level Chicago Center
Thu 05:30:57 PM 40.3869 -89.9189 271° West 441 507 34,100  Climbing Chicago Center
Thu 05:32:00 PM 40.3911 -90.0758 272° West 427 491 34,000 -48 Descending Chicago Center
Thu 05:33:02 PM 40.3931 -90.2333 271° West 427 491 34,000  Level Chicago Center
Thu 05:34:04 PM 40.3947 -90.3906 271° West 429 494 34,000  Level Chicago Center
Thu 05:35:06 PM 40.3969 -90.5728 271° West 417 480 34,000  Level Chicago Center
Thu 05:36:08 PM 40.3989 -90.7272 271° West 422 486 34,000  Level Chicago Center
Thu 05:37:10 PM 40.4003 -90.8811 271° West 422 486 34,000  Level Chicago Center
Thu 05:38:12 PM 40.4011 -91.0361 270° West 425 489 34,000  Level Chicago Center
Thu 05:39:14 PM 40.4019 -91.1933 270° West 430 495 34,000 288 Level Chicago Center
Thu 05:40:17 PM 40.4011 -91.3622 270° West 430 495 34,600 774 Climbing Chicago Center
Thu 05:41:18 PM 40.4036 -91.5172 271° West 429 494 35,600 677 Climbing Chicago Center
Thu 05:42:21 PM 40.4039 -91.6667 270° West 417 480 36,000 175 Climbing Chicago Center
Thu 05:43:35 PM 40.3856 -91.8781 264° West 421 484 36,000  Level Kansas City Center
Thu 05:44:37 PM 40.3736 -92.0308 264° West 424 488 36,000  Level Kansas City Center
Thu 05:45:39 PM 40.3739 -92.1861 270° West 429 494 36,000  Level Kansas City Center
Thu 05:46:41 PM 40.3739 -92.3411 270° West 430 495 36,000  Level Kansas City Center
Thu 05:47:43 PM 40.3731 -92.5242 270° West 428 493 36,000  Level Kansas City Center
Thu 05:48:45 PM 40.3717 -92.6792 269° West 426 490 36,000  Level Kansas City Center
Thu 05:49:47 PM 40.3717 -92.8278 270° West 427 491 36,000  Level Kansas City Center
Thu 05:50:49 PM 40.3708 -93.0006 270° West 426 490 36,000  Level Kansas City Center
Thu 05:51:51 PM 40.3697 -93.1617 270° West 428 493 36,000  Level Kansas City Center
Thu 05:52:53 PM 40.3678 -93.3161 269° West 428 493 36,000  Level Kansas City Center
Thu 05:53:55 PM 40.3661 -93.4692 269° West 426 490 36,000  Level Kansas City Center
Thu 05:54:57 PM 40.3642 -93.6233 269° West 426 490 36,000  Level Kansas City Center
Thu 05:55:59 PM 40.3617 -93.7781 269° West 428 493 36,000  Level Kansas City Center
Thu 05:57:01 PM 40.3594 -93.9661 269° West 433 498 36,000  Level Kansas City Center
Thu 05:58:03 PM 40.3561 -94.1233 268° West 435 501 36,000  Level Kansas City Center
Thu 05:59:05 PM 40.3528 -94.2822 268° West 438 504 36,000  Level Kansas City Center
Thu 06:00:07 PM 40.3506 -94.4553 269° West 442 509 36,000  Level Kansas City Center
Thu 06:01:09 PM 40.3453 -94.6331 268° West 440 506 36,000  Level Kansas City Center
Thu 06:02:18 PM 40.3394 -94.8131 268° West 440 506 36,000  Level Minneapolis Center
Thu 06:03:20 PM 40.3347 -94.9725 268° West 439 505 36,000  Level Minneapolis Center
Thu 06:04:22 PM 40.3319 -95.1333 269° West 440 506 36,000  Level Minneapolis Center
Thu 06:05:24 PM 40.3275 -95.2947 268° West 441 507 36,000  Level Minneapolis Center
Thu 06:06:26 PM 40.3236 -95.4578 268° West 445 512 36,000  Level Minneapolis Center
Thu 06:07:28 PM 40.3189 -95.6208 268° West 446 513 36,000  Level Minneapolis Center
Thu 06:08:30 PM 40.3125 -95.8186 268° West 450 518 36,000  Level Minneapolis Center
Thu 06:09:32 PM 40.3072 -95.9819 268° West 448 516 36,000  Level Minneapolis Center
Thu 06:10:35 PM 40.3014 -96.1447 267° West 447 514 36,000  Level Minneapolis Center
Thu 06:11:37 PM 40.2956 -96.3106 267° West 453 521 36,000  Level Minneapolis Center
Thu 06:12:39 PM 40.2894 -96.4761 267° West 453 521 36,000  Level Minneapolis Center
Thu 06:13:41 PM 40.2831 -96.6408 267° West 453 521 36,000  Level Minneapolis Center
Thu 06:14:43 PM 40.2758 -96.8053 267° West 453 521 36,000  Level Minneapolis Center
Thu 06:15:45 PM 40.2675 -97.0033 267° West 452 520 36,000  Level Minneapolis Center
Thu 06:16:47 PM 40.2611 -97.1672 267° West 451 519 36,000  Level Minneapolis Center
Thu 06:17:49 PM 40.2544 -97.3311 267° West 450 518 36,000  Level Minneapolis Center
Thu 06:18:51 PM 40.2461 -97.4872 266° West 450 518 36,000  Level Minneapolis Center
Thu 06:19:53 PM 40.2372 -97.6847 267° West 451 519 36,000  Level Minneapolis Center
Thu 06:20:55 PM 40.2289 -97.8486 266° West 451 519 36,000  Level Minneapolis Center
Thu 06:21:58 PM 40.2211 -98.0153 267° West 454 522 36,000  Level Minneapolis Center
Thu 06:23:00 PM 40.2114 -98.1811 266° West 456 525 36,000  Level Minneapolis Center
Thu 06:24:02 PM 40.2028 -98.3489 266° West 458 527 36,000  Level Minneapolis Center
Thu 06:25:04 PM 40.1936 -98.5167 266° West 460 529 36,000  Level Minneapolis Center
Thu 06:26:06 PM 40.1833 -98.6844 265° West 461 531 36,000  Level Minneapolis Center
Thu 06:27:08 PM 40.1728 -98.8861 266° West 461 531 36,000  Level Minneapolis Center
Thu 06:27:56 PM 40.1664 -98.9881 265° West 463 533 36,000  Level Denver Center
Thu 06:28:58 PM 40.1544 -99.1908 266° West 465 535 36,000  Level Denver Center
Thu 06:30:00 PM 40.1447 -99.3583 266° West 462 532 36,000  Level Denver Center
Thu 06:31:02 PM 40.1503 -99.5269 273° West 461 531 36,000  Level Denver Center
Thu 06:32:04 PM 40.1544 -99.6942 272° West 459 528 36,000  Level Denver Center
Thu 06:33:06 PM 40.1583 -99.8633 272° West 462 532 36,000  Level Denver Center
Thu 06:34:08 PM 40.1631 -100.0553 272° West 465 535 36,000  Level Denver Center
Thu 06:35:10 PM 40.1658 -100.2183 271° West 468 539 36,000  Level Denver Center
Thu 06:36:12 PM 40.1703 -100.4097 272° West 469 540 36,000  Level Denver Center
Thu 06:37:14 PM 40.1731 -100.5739 271° West 470 541 36,000  Level Denver Center
Thu 06:38:16 PM 40.1756 -100.7378 271° West 470 541 36,000  Level Denver Center
Thu 06:39:18 PM 40.1786 -100.9225 271° West 455 524 36,000  Level Denver Center
Thu 06:40:20 PM 40.1800 -101.0819 271° West 455 524 36,000  Level Denver Center
Thu 06:41:22 PM 40.1831 -101.2678 271° West 456 525 36,000  Level Denver Center
Thu 06:42:24 PM 40.1847 -101.4278 271° West 458 527 36,000  Level Denver Center
Thu 06:43:26 PM 40.1856 -101.6131 270° West 456 525 36,000  Level Denver Center
Thu 06:44:28 PM 40.1881 -101.7717 271° West 456 525 36,000  Level Denver Center
Thu 06:45:30 PM 40.1881 -101.9561 270° West 455 524 36,000  Level Denver Center
Thu 06:46:45 PM 40.1886 -102.1406 270° West 457 526 36,000  Level Denver Center
Thu 06:47:47 PM 40.1897 -102.3242 271° West 453 521 36,000  Level Denver Center
Thu 06:48:49 PM 40.1897 -102.4808 270° West 451 519 36,000  Level Denver Center
Thu 06:49:51 PM 40.1886 -102.6628 270° West 448 516 36,000  Level Denver Center
Thu 06:50:53 PM 40.1903 -102.8194 271° West 452 520 36,000 -97 Level Denver Center
Thu 06:51:55 PM 40.1886 -103.0019 269° West 451 519 35,800 -677 Descending Denver Center
Thu 06:52:57 PM 40.1883 -103.1600 270° West 453 521 34,600 -871 Descending Denver Center
Thu 06:53:59 PM 40.1869 -103.3511 270° West 470 541 34,000 -290 Descending Denver Center
Thu 06:55:01 PM 40.1861 -103.5289 270° West 474 545 34,000  Level Denver Center
Thu 06:56:03 PM 40.1847 -103.6925 269° West 470 541 34,000  Level Denver Center
Thu 06:57:05 PM 40.1822 -103.8753 269° West 473 544 34,000  Level Denver Center
Thu 06:58:07 PM 40.1806 -104.0444 269° West 469 540 34,000  Level Denver Center
Thu 06:59:09 PM 40.1781 -104.2281 269° West 470 541 34,000  Level Denver Center
Thu 07:00:11 PM 40.1758 -104.3964 269° West 467 537 34,000  Level Denver Center
Thu 07:01:13 PM 40.1733 -104.5806 269° West 471 542 34,000  Level Denver Center
Thu 07:02:15 PM 40.1700 -104.7503 269° West 472 543 34,000  Level Denver Center
Thu 07:03:17 PM 40.1656 -104.9328 268° West 470 541 34,000  Level Denver Center
Thu 07:04:19 PM 40.1633 -105.1025 269° West 470 541 34,000  Level Denver Center
Thu 07:05:21 PM 40.1603 -105.2828 269° West 465 535 34,000  Level Denver Center
Thu 07:06:24 PM 40.1550 -105.4531 268° West 470 541 34,000  Level Denver Center
Thu 07:07:26 PM 40.1506 -105.6361 268° West 471 542 34,000  Level Denver Center
Thu 07:08:28 PM 40.1467 -105.8164 268° West 466 536 34,000  Level Denver Center
Thu 07:09:30 PM 40.1394 -105.9742 267° West 454 522 34,000  Level Denver Center
Thu 07:10:44 PM 40.1347 -106.1778 268° West 466 536 34,000  Level Denver Center
Thu 07:11:46 PM 40.1286 -106.3461 267° West 466 536 34,000  Level Denver Center
Thu 07:12:48 PM 40.1233 -106.5228 268° West 463 533 34,000  Level Denver Center
Thu 07:13:50 PM 40.1169 -106.7106 268° West 465 535 34,000  Level Denver Center
Thu 07:14:52 PM 40.1108 -106.8708 267° West 462 532 34,000  Level Denver Center
Thu 07:15:54 PM 40.1033 -107.0597 267° West 467 537 34,000  Level Denver Center
Thu 07:16:56 PM 40.0972 -107.2192 267° West 462 532 34,000  Level Denver Center
Thu 07:17:58 PM 40.0897 -107.4083 267° West 466 536 34,000  Level Denver Center
Thu 07:19:00 PM 40.0825 -107.5694 267° West 465 535 34,000  Level Denver Center
Thu 07:20:02 PM 40.0747 -107.7575 267° West 466 536 34,000  Level Denver Center
Thu 07:21:04 PM 40.0681 -107.9183 267° West 464 534 34,000  Level Denver Center
Thu 07:22:06 PM 40.0764 -108.1072 273° West 467 537 34,000  Level Denver Center
Thu 07:23:08 PM 40.0828 -108.2669 273° West 465 535 34,000  Level Denver Center
Thu 07:24:10 PM 40.0911 -108.4528 273° West 462 532 34,000  Level Denver Center
Thu 07:25:12 PM 40.0978 -108.6142 273° West 466 536 34,000  Level Denver Center
Thu 07:26:14 PM 40.1047 -108.7994 273° West 463 533 34,000  Level Denver Center
Thu 07:27:15 PM 40.1114 -108.9597 273° West 463 533 34,000  Level Salt Lake Center
Thu 07:28:18 PM 40.1181 -109.1456 273° West 462 532 34,000  Level Denver Center
Thu 07:29:20 PM 40.1236 -109.3061 273° West 463 533 34,000  Level Denver Center
Thu 07:30:20 PM 40.1289 -109.4689 272° West 468 539 34,000  Level Salt Lake Center
Thu 07:31:22 PM 40.1353 -109.6592 273° West 470 541 34,000 -581 Level Salt Lake Center
Thu 07:32:24 PM 40.1397 -109.8236 272° West 473 544 32,800 -1,452 Descending Salt Lake Center
Thu 07:33:26 PM 40.1456 -110.0139 272° West 472 543 31,000 -1,366 Descending Salt Lake Center
Thu 07:34:27 PM 40.1497 -110.1772 272° West 471 542 30,000 -488 Descending Salt Lake Center
Thu 07:35:29 PM 40.1472 -110.3694 269° West 473 544 30,000  Level Salt Lake Center
Thu 07:36:31 PM 40.1453 -110.5339 269° West 473 544 30,000 -919 Level Salt Lake Center
Thu 07:37:33 PM 40.1433 -110.7247 269° West 472 543 28,100 -2,758 Descending Salt Lake Center
Thu 07:38:35 PM 40.1403 -110.8906 269° West 476 548 24,300 -3,194 Descending Salt Lake Center
Thu 07:39:37 PM 40.1386 -111.0753 269° West 470 541 21,500 -2,468 Descending Salt Lake Center
Thu 07:40:39 PM 40.1372 -111.2383 269° West 455 524 19,200 -1,935 Descending Salt Lake Center
Thu 07:41:41 PM 40.1339 -111.3947 268° West 437 503 17,500 -1,574 Descending Salt Lake Center
Thu 07:42:41 PM 40.1303 -111.5589 268° West 408 470 16,000 -1,154 Descending Salt Lake Center
Thu 07:42:59 PM 40.1433 -111.6019 292° West 399 459 16,000 -476 Level Salt Lake Center
Thu 07:43:44 PM 40.1792 -111.6764 302° West 398 458 15,500 -1,180 Descending Salt Lake Center
Thu 07:44:00 PM 40.1994 -111.7206 301° West 393 452 14,800 -1,645 Descending Salt Lake Center
Thu 07:44:46 PM 40.2325 -111.7967 300° West 389 448 13,800 -1,333 Descending Salt Lake Center
Thu 07:45:48 PM 40.3044 -111.8800 319° Northwest 352 405 12,400 -1,338 Descending Salt Lake Center
Thu 07:46:56 PM 40.4081 -111.9450 334° Northwest 311 358 10,900 -1,161 Descending Salt Lake Center
Thu 07:47:52 PM 40.4783 -111.9614 350° North 292 336 10,000 -1,026 Descending Salt Lake Center
Thu 07:48:53 PM 40.5514 -111.9694 355° North 264 304 8,900 -1,082 Descending Salt Lake Center

Login

Don't have an account? Register now (free) for customized features, flight alerts, and more!